sensor_id;sensor_type;location;lat;lon;timestamp;P1;durP1;ratioP1;P2;durP2;ratioP2
7969;SDS011;4030;52.362;9.206;2023-06-04T00:00:01;1.70;;;1.20;;
7969;SDS011;4030;52.362;9.206;2023-06-04T00:02:28;1.20;;;1.00;;
7969;SDS011;4030;52.362;9.206;2023-06-04T00:04:53;1.27;;;1.02;;
7969;SDS011;4030;52.362;9.206;2023-06-04T00:07:19;1.17;;;1.00;;
7969;SDS011;4030;52.362;9.206;2023-06-04T00:09:45;1.10;;;1.00;;
7969;SDS011;4030;52.362;9.206;2023-06-04T00:12:12;1.40;;;1.00;;
7969;SDS011;4030;52.362;9.206;2023-06-04T00:14:38;1.30;;;1.00;;
7969;SDS011;4030;52.362;9.206;2023-06-04T00:17:03;1.20;;;1.10;;
7969;SDS011;4030;52.362;9.206;2023-06-04T00:19:29;1.65;;;1.13;;
7969;SDS011;4030;52.362;9.206;2023-06-04T00:21:55;1.35;;;1.15;;
7969;SDS011;4030;52.362;9.206;2023-06-04T00:24:21;1.20;;;1.10;;
7969;SDS011;4030;52.362;9.206;2023-06-04T00:26:47;1.25;;;1.05;;
7969;SDS011;4030;52.362;9.206;2023-06-04T00:29:12;1.38;;;1.00;;
7969;SDS011;4030;52.362;9.206;2023-06-04T00:31:38;1.35;;;1.02;;
7969;SDS011;4030;52.362;9.206;2023-06-04T00:34:04;2.53;;;1.10;;
7969;SDS011;4030;52.362;9.206;2023-06-04T00:36:30;1.73;;;1.10;;
7969;SDS011;4030;52.362;9.206;2023-06-04T00:38:55;2.22;;;1.00;;
7969;SDS011;4030;52.362;9.206;2023-06-04T00:41:21;1.52;;;1.20;;
7969;SDS011;4030;52.362;9.206;2023-06-04T00:43:47;1.20;;;1.00;;
7969;SDS011;4030;52.362;9.206;2023-06-04T00:46:22;1.20;;;1.00;;
7969;SDS011;4030;52.362;9.206;2023-06-04T00:48:50;2.65;;;1.20;;
7969;SDS011;4030;52.362;9.206;2023-06-04T00:51:17;2.10;;;1.25;;
7969;SDS011;4030;52.362;9.206;2023-06-04T00:53:43;1.33;;;1.20;;
7969;SDS011;4030;52.362;9.206;2023-06-04T00:56:08;1.80;;;1.15;;
7969;SDS011;4030;52.362;9.206;2023-06-04T00:58:37;1.52;;;1.10;;
7969;SDS011;4030;52.362;9.206;2023-06-04T01:01:04;3.25;;;1.15;;
7969;SDS011;4030;52.362;9.206;2023-06-04T01:03:33;1.00;;;0.90;;
7969;SDS011;4030;52.362;9.206;2023-06-04T01:06:04;1.75;;;1.05;;
7969;SDS011;4030;52.362;9.206;2023-06-04T01:08:52;1.58;;;1.00;;
7969;SDS011;4030;52.362;9.206;2023-06-04T01:11:30;1.38;;;1.15;;
7969;SDS011;4030;52.362;9.206;2023-06-04T01:14:01;1.05;;;0.90;;
7969;SDS011;4030;52.362;9.206;2023-06-04T01:16:29;1.38;;;1.10;;
7969;SDS011;4030;52.362;9.206;2023-06-04T01:19:04;1.48;;;1.00;;
7969;SDS011;4030;52.362;9.206;2023-06-04T01:21:48;2.00;;;1.08;;
7969;SDS011;4030;52.362;9.206;2023-06-04T01:24:16;0.77;;;0.77;;
7969;SDS011;4030;52.362;9.206;2023-06-04T01:26:46;1.85;;;1.00;;
7969;SDS011;4030;52.362;9.206;2023-06-04T01:29:13;1.00;;;0.93;;
7969;SDS011;4030;52.362;9.206;2023-06-04T01:31:39;2.00;;;1.27;;
7969;SDS011;4030;52.362;9.206;2023-06-04T01:34:07;1.23;;;0.90;;
7969;SDS011;4030;52.362;9.206;2023-06-04T01:36:32;1.40;;;0.95;;
7969;SDS011;4030;52.362;9.206;2023-06-04T01:38:58;0.93;;;0.80;;
7969;SDS011;4030;52.362;9.206;2023-06-04T01:41:25;1.00;;;0.90;;
7969;SDS011;4030;52.362;9.206;2023-06-04T01:43:51;1.45;;;1.10;;
7969;SDS011;4030;52.362;9.206;2023-06-04T01:46:17;1.30;;;1.00;;
7969;SDS011;4030;52.362;9.206;2023-06-04T01:48:42;1.75;;;1.10;;
7969;SDS011;4030;52.362;9.206;2023-06-04T01:51:08;1.00;;;0.90;;
7969;SDS011;4030;52.362;9.206;2023-06-04T01:53:33;1.10;;;0.80;;
7969;SDS011;4030;52.362;9.206;2023-06-04T01:56:00;1.13;;;1.00;;
7969;SDS011;4030;52.362;9.206;2023-06-04T01:58:26;0.95;;;0.88;;
7969;SDS011;4030;52.362;9.206;2023-06-04T02:00:54;1.10;;;1.00;;
7969;SDS011;4030;52.362;9.206;2023-06-04T02:03:25;1.35;;;1.00;;
7969;SDS011;4030;52.362;9.206;2023-06-04T02:05:51;1.05;;;0.80;;
7969;SDS011;4030;52.362;9.206;2023-06-04T02:08:17;0.90;;;0.80;;
7969;SDS011;4030;52.362;9.206;2023-06-04T02:10:44;1.00;;;0.90;;
7969;SDS011;4030;52.362;9.206;2023-06-04T02:13:12;2.00;;;1.10;;
7969;SDS011;4030;52.362;9.206;2023-06-04T02:15:38;1.23;;;1.00;;
7969;SDS011;4030;52.362;9.206;2023-06-04T02:18:14;1.63;;;0.90;;
7969;SDS011;4030;52.362;9.206;2023-06-04T02:20:45;1.00;;;0.90;;
7969;SDS011;4030;52.362;9.206;2023-06-04T02:23:13;1.02;;;0.90;;
7969;SDS011;4030;52.362;9.206;2023-06-04T02:25:41;0.88;;;0.88;;
7969;SDS011;4030;52.362;9.206;2023-06-04T02:28:09;1.10;;;1.00;;
7969;SDS011;4030;52.362;9.206;2023-06-04T02:30:35;1.98;;;1.00;;
7969;SDS011;4030;52.362;9.206;2023-06-04T02:33:01;1.85;;;1.00;;
7969;SDS011;4030;52.362;9.206;2023-06-04T02:35:27;1.40;;;1.00;;
7969;SDS011;4030;52.362;9.206;2023-06-04T02:37:53;1.13;;;1.02;;
7969;SDS011;4030;52.362;9.206;2023-06-04T02:40:21;1.30;;;1.20;;
7969;SDS011;4030;52.362;9.206;2023-06-04T02:42:47;1.90;;;1.10;;
7969;SDS011;4030;52.362;9.206;2023-06-04T02:45:12;1.52;;;1.13;;
7969;SDS011;4030;52.362;9.206;2023-06-04T02:47:38;1.50;;;1.10;;
7969;SDS011;4030;52.362;9.206;2023-06-04T02:50:04;1.30;;;1.20;;
7969;SDS011;4030;52.362;9.206;2023-06-04T02:52:30;1.38;;;1.17;;
7969;SDS011;4030;52.362;9.206;2023-06-04T02:54:57;1.10;;;1.00;;
7969;SDS011;4030;52.362;9.206;2023-06-04T02:57:23;1.30;;;1.10;;
7969;SDS011;4030;52.362;9.206;2023-06-04T02:59:49;1.33;;;1.17;;
7969;SDS011;4030;52.362;9.206;2023-06-04T03:02:14;2.30;;;1.27;;
7969;SDS011;4030;52.362;9.206;2023-06-04T03:04:43;2.25;;;1.50;;
7969;SDS011;4030;52.362;9.206;2023-06-04T03:07:09;1.00;;;0.90;;
7969;SDS011;4030;52.362;9.206;2023-06-04T03:09:36;1.67;;;1.30;;
7969;SDS011;4030;52.362;9.206;2023-06-04T03:12:02;1.10;;;1.00;;
7969;SDS011;4030;52.362;9.206;2023-06-04T03:14:29;1.30;;;1.20;;
7969;SDS011;4030;52.362;9.206;2023-06-04T03:16:58;1.05;;;0.95;;
7969;SDS011;4030;52.362;9.206;2023-06-04T03:19:41;1.17;;;1.08;;
7969;SDS011;4030;52.362;9.206;2023-06-04T03:22:07;1.52;;;1.10;;
7969;SDS011;4030;52.362;9.206;2023-06-04T03:24:35;3.47;;;1.35;;
7969;SDS011;4030;52.362;9.206;2023-06-04T03:27:02;1.23;;;1.13;;
7969;SDS011;4030;52.362;9.206;2023-06-04T03:29:30;2.40;;;1.08;;
7969;SDS011;4030;52.362;9.206;2023-06-04T03:31:57;1.60;;;1.30;;
7969;SDS011;4030;52.362;9.206;2023-06-04T03:34:23;1.33;;;1.20;;
7969;SDS011;4030;52.362;9.206;2023-06-04T03:36:52;1.13;;;0.93;;
7969;SDS011;4030;52.362;9.206;2023-06-04T03:39:21;1.23;;;1.08;;
7969;SDS011;4030;52.362;9.206;2023-06-04T03:41:47;1.02;;;0.90;;
7969;SDS011;4030;52.362;9.206;2023-06-04T03:44:14;2.28;;;1.20;;
7969;SDS011;4030;52.362;9.206;2023-06-04T03:46:41;1.15;;;1.00;;
7969;SDS011;4030;52.362;9.206;2023-06-04T03:49:11;1.17;;;1.08;;
7969;SDS011;4030;52.362;9.206;2023-06-04T03:51:38;1.20;;;1.10;;
7969;SDS011;4030;52.362;9.206;2023-06-04T03:54:04;1.45;;;1.17;;
7969;SDS011;4030;52.362;9.206;2023-06-04T03:56:30;2.10;;;1.30;;
7969;SDS011;4030;52.362;9.206;2023-06-04T03:58:56;1.38;;;1.20;;
7969;SDS011;4030;52.362;9.206;2023-06-04T04:01:22;1.67;;;1.20;;
7969;SDS011;4030;52.362;9.206;2023-06-04T04:03:49;1.40;;;0.98;;
7969;SDS011;4030;52.362;9.206;2023-06-04T04:06:16;2.88;;;1.20;;
7969;SDS011;4030;52.362;9.206;2023-06-04T04:08:42;2.33;;;1.10;;
7969;SDS011;4030;52.362;9.206;2023-06-04T04:11:09;1.35;;;1.17;;
7969;SDS011;4030;52.362;9.206;2023-06-04T04:13:38;1.50;;;1.25;;
7969;SDS011;4030;52.362;9.206;2023-06-04T04:16:04;1.20;;;1.10;;
7969;SDS011;4030;52.362;9.206;2023-06-04T04:18:33;2.03;;;1.48;;
7969;SDS011;4030;52.362;9.206;2023-06-04T04:21:01;1.40;;;1.30;;
7969;SDS011;4030;52.362;9.206;2023-06-04T04:23:28;1.42;;;1.30;;
7969;SDS011;4030;52.362;9.206;2023-06-04T04:25:54;2.40;;;1.50;;
7969;SDS011;4030;52.362;9.206;2023-06-04T04:28:23;1.83;;;1.20;;
7969;SDS011;4030;52.362;9.206;2023-06-04T04:30:53;1.50;;;1.17;;
7969;SDS011;4030;52.362;9.206;2023-06-04T04:33:22;2.00;;;1.50;;
7969;SDS011;4030;52.362;9.206;2023-06-04T04:35:51;1.60;;;1.40;;
7969;SDS011;4030;52.362;9.206;2023-06-04T04:38:19;1.85;;;1.30;;
7969;SDS011;4030;52.362;9.206;2023-06-04T04:40:48;2.25;;;1.15;;
7969;SDS011;4030;52.362;9.206;2023-06-04T04:43:17;1.40;;;1.30;;
7969;SDS011;4030;52.362;9.206;2023-06-04T04:45:53;1.88;;;1.63;;
7969;SDS011;4030;52.362;9.206;2023-06-04T04:48:19;1.85;;;1.20;;
7969;SDS011;4030;52.362;9.206;2023-06-04T04:50:45;2.72;;;1.55;;
7969;SDS011;4030;52.362;9.206;2023-06-04T04:53:10;1.70;;;1.50;;
7969;SDS011;4030;52.362;9.206;2023-06-04T04:55:36;1.83;;;1.50;;
7969;SDS011;4030;52.362;9.206;2023-06-04T04:58:02;1.60;;;1.50;;
7969;SDS011;4030;52.362;9.206;2023-06-04T05:00:28;2.85;;;1.48;;
7969;SDS011;4030;52.362;9.206;2023-06-04T05:02:54;1.65;;;1.33;;
7969;SDS011;4030;52.362;9.206;2023-06-04T05:05:20;1.73;;;1.50;;
7969;SDS011;4030;52.362;9.206;2023-06-04T05:07:46;1.52;;;1.30;;
7969;SDS011;4030;52.362;9.206;2023-06-04T05:10:12;1.50;;;1.40;;
7969;SDS011;4030;52.362;9.206;2023-06-04T05:12:38;1.92;;;1.38;;
7969;SDS011;4030;52.362;9.206;2023-06-04T05:15:03;1.80;;;1.42;;
7969;SDS011;4030;52.362;9.206;2023-06-04T05:17:30;2.25;;;1.65;;
7969;SDS011;4030;52.362;9.206;2023-06-04T05:19:56;2.15;;;1.38;;
7969;SDS011;4030;52.362;9.206;2023-06-04T05:22:36;1.98;;;1.33;;
7969;SDS011;4030;52.362;9.206;2023-06-04T05:25:05;1.70;;;1.35;;
7969;SDS011;4030;52.362;9.206;2023-06-04T05:27:31;2.70;;;1.45;;
7969;SDS011;4030;52.362;9.206;2023-06-04T05:29:57;2.65;;;1.50;;
7969;SDS011;4030;52.362;9.206;2023-06-04T05:32:23;2.15;;;1.50;;
7969;SDS011;4030;52.362;9.206;2023-06-04T05:34:53;2.47;;;1.40;;
7969;SDS011;4030;52.362;9.206;2023-06-04T05:37:22;1.40;;;1.30;;
7969;SDS011;4030;52.362;9.206;2023-06-04T05:39:52;1.55;;;1.42;;
7969;SDS011;4030;52.362;9.206;2023-06-04T05:42:18;3.50;;;1.52;;
7969;SDS011;4030;52.362;9.206;2023-06-04T05:44:44;2.15;;;1.50;;
7969;SDS011;4030;52.362;9.206;2023-06-04T05:47:10;1.70;;;1.40;;
7969;SDS011;4030;52.362;9.206;2023-06-04T05:49:36;2.05;;;1.27;;
7969;SDS011;4030;52.362;9.206;2023-06-04T05:52:02;1.83;;;1.35;;
7969;SDS011;4030;52.362;9.206;2023-06-04T05:54:28;2.67;;;1.20;;
7969;SDS011;4030;52.362;9.206;2023-06-04T05:56:55;1.60;;;1.40;;
7969;SDS011;4030;52.362;9.206;2023-06-04T05:59:20;1.60;;;1.27;;
7969;SDS011;4030;52.362;9.206;2023-06-04T06:01:46;1.40;;;1.20;;
7969;SDS011;4030;52.362;9.206;2023-06-04T06:04:13;1.55;;;1.30;;
7969;SDS011;4030;52.362;9.206;2023-06-04T06:06:40;1.45;;;1.25;;
7969;SDS011;4030;52.362;9.206;2023-06-04T06:09:08;1.55;;;1.40;;
7969;SDS011;4030;52.362;9.206;2023-06-04T06:11:35;1.35;;;1.25;;
7969;SDS011;4030;52.362;9.206;2023-06-04T06:14:01;2.08;;;1.10;;
7969;SDS011;4030;52.362;9.206;2023-06-04T06:16:27;1.30;;;1.10;;
7969;SDS011;4030;52.362;9.206;2023-06-04T06:18:53;1.35;;;1.20;;
7969;SDS011;4030;52.362;9.206;2023-06-04T06:21:18;2.97;;;1.10;;
7969;SDS011;4030;52.362;9.206;2023-06-04T06:23:45;2.67;;;1.30;;
7969;SDS011;4030;52.362;9.206;2023-06-04T06:26:11;1.55;;;1.15;;
7969;SDS011;4030;52.362;9.206;2023-06-04T06:28:36;1.60;;;1.10;;
7969;SDS011;4030;52.362;9.206;2023-06-04T06:31:02;1.35;;;0.95;;
7969;SDS011;4030;52.362;9.206;2023-06-04T06:33:28;2.38;;;1.17;;
7969;SDS011;4030;52.362;9.206;2023-06-04T06:35:54;1.38;;;1.10;;
7969;SDS011;4030;52.362;9.206;2023-06-04T06:38:19;1.40;;;1.10;;
7969;SDS011;4030;52.362;9.206;2023-06-04T06:40:45;1.90;;;1.17;;
7969;SDS011;4030;52.362;9.206;2023-06-04T06:43:11;1.30;;;1.00;;
7969;SDS011;4030;52.362;9.206;2023-06-04T06:45:37;1.33;;;1.02;;
7969;SDS011;4030;52.362;9.206;2023-06-04T06:48:03;1.52;;;1.17;;
7969;SDS011;4030;52.362;9.206;2023-06-04T06:50:29;0.95;;;0.85;;
7969;SDS011;4030;52.362;9.206;2023-06-04T06:52:55;1.63;;;1.17;;
7969;SDS011;4030;52.362;9.206;2023-06-04T06:55:20;1.42;;;1.02;;
7969;SDS011;4030;52.362;9.206;2023-06-04T06:57:46;1.27;;;1.05;;
7969;SDS011;4030;52.362;9.206;2023-06-04T07:00:12;2.00;;;0.98;;
7969;SDS011;4030;52.362;9.206;2023-06-04T07:02:38;1.30;;;1.20;;
7969;SDS011;4030;52.362;9.206;2023-06-04T07:05:04;1.15;;;0.90;;
7969;SDS011;4030;52.362;9.206;2023-06-04T07:07:29;1.40;;;1.00;;
7969;SDS011;4030;52.362;9.206;2023-06-04T07:09:56;1.10;;;1.00;;
7969;SDS011;4030;52.362;9.206;2023-06-04T07:12:21;1.13;;;1.00;;
7969;SDS011;4030;52.362;9.206;2023-06-04T07:14:47;1.30;;;1.05;;
7969;SDS011;4030;52.362;9.206;2023-06-04T07:17:13;1.05;;;0.95;;
7969;SDS011;4030;52.362;9.206;2023-06-04T07:19:38;2.22;;;1.00;;
7969;SDS011;4030;52.362;9.206;2023-06-04T07:22:04;1.30;;;1.00;;
7969;SDS011;4030;52.362;9.206;2023-06-04T07:24:30;1.77;;;1.00;;
7969;SDS011;4030;52.362;9.206;2023-06-04T07:26:55;0.98;;;0.82;;
7969;SDS011;4030;52.362;9.206;2023-06-04T07:29:21;1.00;;;0.90;;
7969;SDS011;4030;52.362;9.206;2023-06-04T07:31:47;0.95;;;0.88;;
7969;SDS011;4030;52.362;9.206;2023-06-04T07:34:13;1.80;;;1.10;;
7969;SDS011;4030;52.362;9.206;2023-06-04T07:36:38;1.10;;;0.95;;
7969;SDS011;4030;52.362;9.206;2023-06-04T07:39:04;1.30;;;0.95;;
7969;SDS011;4030;52.362;9.206;2023-06-04T07:41:30;0.95;;;0.90;;
7969;SDS011;4030;52.362;9.206;2023-06-04T07:43:56;0.88;;;0.88;;
7969;SDS011;4030;52.362;9.206;2023-06-04T07:46:21;1.40;;;1.08;;
7969;SDS011;4030;52.362;9.206;2023-06-04T07:48:47;1.50;;;0.80;;
7969;SDS011;4030;52.362;9.206;2023-06-04T07:51:13;0.98;;;0.90;;
7969;SDS011;4030;52.362;9.206;2023-06-04T07:53:39;0.75;;;0.70;;
7969;SDS011;4030;52.362;9.206;2023-06-04T07:56:06;1.05;;;0.80;;
7969;SDS011;4030;52.362;9.206;2023-06-04T07:58:31;1.15;;;0.77;;
7969;SDS011;4030;52.362;9.206;2023-06-04T08:00:57;1.77;;;0.90;;
7969;SDS011;4030;52.362;9.206;2023-06-04T08:03:23;0.90;;;0.80;;
7969;SDS011;4030;52.362;9.206;2023-06-04T08:05:49;1.00;;;0.90;;
7969;SDS011;4030;52.362;9.206;2023-06-04T08:08:15;0.82;;;0.80;;
7969;SDS011;4030;52.362;9.206;2023-06-04T08:10:41;0.75;;;0.75;;
7969;SDS011;4030;52.362;9.206;2023-06-04T08:13:07;1.30;;;0.80;;
7969;SDS011;4030;52.362;9.206;2023-06-04T08:15:33;1.55;;;0.93;;
7969;SDS011;4030;52.362;9.206;2023-06-04T08:17:59;1.58;;;1.00;;
7969;SDS011;4030;52.362;9.206;2023-06-04T08:20:25;1.45;;;0.90;;
7969;SDS011;4030;52.362;9.206;2023-06-04T08:22:50;1.20;;;0.70;;
7969;SDS011;4030;52.362;9.206;2023-06-04T08:25:16;1.75;;;0.85;;
7969;SDS011;4030;52.362;9.206;2023-06-04T08:27:42;1.17;;;0.85;;
7969;SDS011;4030;52.362;9.206;2023-06-04T08:30:08;1.25;;;0.85;;
7969;SDS011;4030;52.362;9.206;2023-06-04T08:32:34;1.65;;;1.00;;
7969;SDS011;4030;52.362;9.206;2023-06-04T08:35:00;2.58;;;0.70;;
7969;SDS011;4030;52.362;9.206;2023-06-04T08:37:26;1.00;;;0.88;;
7969;SDS011;4030;52.362;9.206;2023-06-04T08:39:51;0.98;;;0.77;;
7969;SDS011;4030;52.362;9.206;2023-06-04T08:44:57;0.75;;;0.75;;
7969;SDS011;4030;52.362;9.206;2023-06-04T08:47:24;2.78;;;0.98;;
7969;SDS011;4030;52.362;9.206;2023-06-04T08:49:52;1.48;;;0.95;;
7969;SDS011;4030;52.362;9.206;2023-06-04T08:52:24;1.20;;;0.80;;
7969;SDS011;4030;52.362;9.206;2023-06-04T08:54:51;1.10;;;0.88;;
7969;SDS011;4030;52.362;9.206;2023-06-04T08:57:18;1.10;;;1.00;;
7969;SDS011;4030;52.362;9.206;2023-06-04T08:59:47;1.35;;;0.90;;
7969;SDS011;4030;52.362;9.206;2023-06-04T09:02:17;2.10;;;0.80;;
7969;SDS011;4030;52.362;9.206;2023-06-04T09:04:43;1.27;;;0.90;;
7969;SDS011;4030;52.362;9.206;2023-06-04T09:07:12;1.35;;;0.88;;
7969;SDS011;4030;52.362;9.206;2023-06-04T09:09:39;1.05;;;0.80;;
7969;SDS011;4030;52.362;9.206;2023-06-04T09:12:12;0.95;;;0.80;;
7969;SDS011;4030;52.362;9.206;2023-06-04T09:14:47;0.85;;;0.82;;
7969;SDS011;4030;52.362;9.206;2023-06-04T09:17:15;2.13;;;0.95;;
7969;SDS011;4030;52.362;9.206;2023-06-04T09:19:46;1.10;;;1.00;;
7969;SDS011;4030;52.362;9.206;2023-06-04T09:22:12;1.00;;;0.80;;
7969;SDS011;4030;52.362;9.206;2023-06-04T09:24:44;1.38;;;0.80;;
7969;SDS011;4030;52.362;9.206;2023-06-04T09:27:18;1.15;;;0.80;;
7969;SDS011;4030;52.362;9.206;2023-06-04T09:29:51;1.25;;;0.90;;
7969;SDS011;4030;52.362;9.206;2023-06-04T09:32:24;2.08;;;1.10;;
7969;SDS011;4030;52.362;9.206;2023-06-04T09:34:52;2.08;;;0.90;;
7969;SDS011;4030;52.362;9.206;2023-06-04T09:37:19;1.65;;;0.98;;
7969;SDS011;4030;52.362;9.206;2023-06-04T09:39:57;2.47;;;1.00;;
7969;SDS011;4030;52.362;9.206;2023-06-04T09:42:23;2.45;;;1.10;;
7969;SDS011;4030;52.362;9.206;2023-06-04T09:44:49;2.28;;;0.75;;
7969;SDS011;4030;52.362;9.206;2023-06-04T09:47:15;1.17;;;0.80;;
7969;SDS011;4030;52.362;9.206;2023-06-04T09:49:44;2.55;;;0.98;;
7969;SDS011;4030;52.362;9.206;2023-06-04T09:52:12;2.53;;;0.93;;
7969;SDS011;4030;52.362;9.206;2023-06-04T09:54:39;3.78;;;1.02;;
7969;SDS011;4030;52.362;9.206;2023-06-04T09:57:19;1.15;;;1.02;;
7969;SDS011;4030;52.362;9.206;2023-06-04T09:59:46;2.05;;;0.82;;
7969;SDS011;4030;52.362;9.206;2023-06-04T10:02:21;5.82;;;1.10;;
7969;SDS011;4030;52.362;9.206;2023-06-04T10:04:53;5.20;;;1.40;;
7969;SDS011;4030;52.362;9.206;2023-06-04T10:07:24;9.50;;;1.90;;
7969;SDS011;4030;52.362;9.206;2023-06-04T10:09:51;6.97;;;1.92;;
7969;SDS011;4030;52.362;9.206;2023-06-04T10:12:20;4.63;;;1.70;;
7969;SDS011;4030;52.362;9.206;2023-06-04T10:15:10;7.97;;;1.80;;
7969;SDS011;4030;52.362;9.206;2023-06-04T10:17:38;9.35;;;1.67;;
7969;SDS011;4030;52.362;9.206;2023-06-04T10:20:06;7.15;;;2.05;;
7969;SDS011;4030;52.362;9.206;2023-06-04T10:22:34;8.15;;;1.90;;
7969;SDS011;4030;52.362;9.206;2023-06-04T10:25:00;6.63;;;1.83;;
7969;SDS011;4030;52.362;9.206;2023-06-04T10:27:32;3.65;;;1.58;;
7969;SDS011;4030;52.362;9.206;2023-06-04T10:30:00;5.18;;;1.23;;
7969;SDS011;4030;52.362;9.206;2023-06-04T10:32:28;2.97;;;1.40;;
7969;SDS011;4030;52.362;9.206;2023-06-04T10:34:54;3.47;;;1.50;;
7969;SDS011;4030;52.362;9.206;2023-06-04T10:37:22;3.60;;;1.35;;
7969;SDS011;4030;52.362;9.206;2023-06-04T10:39:53;4.07;;;1.45;;
7969;SDS011;4030;52.362;9.206;2023-06-04T10:42:21;3.20;;;1.35;;
7969;SDS011;4030;52.362;9.206;2023-06-04T10:44:49;4.05;;;1.52;;
7969;SDS011;4030;52.362;9.206;2023-06-04T10:47:26;4.97;;;1.40;;
7969;SDS011;4030;52.362;9.206;2023-06-04T10:50:08;5.35;;;1.52;;
7969;SDS011;4030;52.362;9.206;2023-06-04T10:52:36;5.07;;;1.50;;
7969;SDS011;4030;52.362;9.206;2023-06-04T10:55:05;4.05;;;1.30;;
7969;SDS011;4030;52.362;9.206;2023-06-04T10:57:33;3.80;;;1.35;;
7969;SDS011;4030;52.362;9.206;2023-06-04T10:59:59;5.25;;;1.58;;
7969;SDS011;4030;52.362;9.206;2023-06-04T11:02:26;3.00;;;1.33;;
7969;SDS011;4030;52.362;9.206;2023-06-04T11:05:05;3.88;;;1.40;;
7969;SDS011;4030;52.362;9.206;2023-06-04T11:07:43;2.88;;;1.50;;
7969;SDS011;4030;52.362;9.206;2023-06-04T11:10:14;4.35;;;1.70;;
7969;SDS011;4030;52.362;9.206;2023-06-04T11:12:45;3.70;;;1.30;;
7969;SDS011;4030;52.362;9.206;2023-06-04T11:15:13;2.50;;;1.42;;
7969;SDS011;4030;52.362;9.206;2023-06-04T11:17:55;4.40;;;1.67;;
7969;SDS011;4030;52.362;9.206;2023-06-04T11:20:24;3.63;;;1.52;;
7969;SDS011;4030;52.362;9.206;2023-06-04T11:22:53;4.60;;;1.50;;
7969;SDS011;4030;52.362;9.206;2023-06-04T11:25:21;3.22;;;1.40;;
7969;SDS011;4030;52.362;9.206;2023-06-04T11:27:51;4.13;;;1.30;;
7969;SDS011;4030;52.362;9.206;2023-06-04T11:30:19;5.30;;;1.67;;
7969;SDS011;4030;52.362;9.206;2023-06-04T11:32:45;4.32;;;1.60;;
7969;SDS011;4030;52.362;9.206;2023-06-04T11:35:11;2.83;;;1.33;;
7969;SDS011;4030;52.362;9.206;2023-06-04T11:37:37;2.53;;;1.30;;
7969;SDS011;4030;52.362;9.206;2023-06-04T11:40:14;2.88;;;1.40;;
7969;SDS011;4030;52.362;9.206;2023-06-04T11:42:42;2.63;;;1.20;;
7969;SDS011;4030;52.362;9.206;2023-06-04T11:45:09;2.20;;;1.20;;
7969;SDS011;4030;52.362;9.206;2023-06-04T11:47:52;3.60;;;1.20;;
7969;SDS011;4030;52.362;9.206;2023-06-04T11:50:20;3.13;;;1.30;;
7969;SDS011;4030;52.362;9.206;2023-06-04T11:52:48;2.28;;;1.20;;
7969;SDS011;4030;52.362;9.206;2023-06-04T11:55:15;3.42;;;1.30;;
7969;SDS011;4030;52.362;9.206;2023-06-04T11:57:50;2.10;;;1.27;;
7969;SDS011;4030;52.362;9.206;2023-06-04T12:00:16;4.63;;;1.42;;
7969;SDS011;4030;52.362;9.206;2023-06-04T12:02:48;4.10;;;1.27;;
7969;SDS011;4030;52.362;9.206;2023-06-04T12:05:17;2.30;;;1.30;;
7969;SDS011;4030;52.362;9.206;2023-06-04T12:07:44;2.92;;;1.23;;
7969;SDS011;4030;52.362;9.206;2023-06-04T12:10:10;3.00;;;1.25;;
7969;SDS011;4030;52.362;9.206;2023-06-04T12:12:37;2.85;;;1.40;;
7969;SDS011;4030;52.362;9.206;2023-06-04T12:15:03;4.60;;;1.38;;
7969;SDS011;4030;52.362;9.206;2023-06-04T12:17:34;2.85;;;1.17;;
7969;SDS011;4030;52.362;9.206;2023-06-04T12:20:00;3.95;;;1.45;;
7969;SDS011;4030;52.362;9.206;2023-06-04T12:22:26;2.58;;;1.30;;
7969;SDS011;4030;52.362;9.206;2023-06-04T12:24:56;2.67;;;1.23;;
7969;SDS011;4030;52.362;9.206;2023-06-04T12:27:24;2.05;;;1.20;;
7969;SDS011;4030;52.362;9.206;2023-06-04T12:30:00;1.65;;;1.08;;
7969;SDS011;4030;52.362;9.206;2023-06-04T12:32:28;2.95;;;1.20;;
7969;SDS011;4030;52.362;9.206;2023-06-04T12:34:54;2.08;;;0.90;;
7969;SDS011;4030;52.362;9.206;2023-06-04T12:37:21;1.80;;;1.15;;
7969;SDS011;4030;52.362;9.206;2023-06-04T12:39:50;2.05;;;1.02;;
7969;SDS011;4030;52.362;9.206;2023-06-04T12:42:16;1.48;;;0.98;;
7969;SDS011;4030;52.362;9.206;2023-06-04T12:44:44;1.85;;;1.00;;
7969;SDS011;4030;52.362;9.206;2023-06-04T12:47:10;2.15;;;0.80;;
7969;SDS011;4030;52.362;9.206;2023-06-04T12:49:36;2.10;;;1.08;;
7969;SDS011;4030;52.362;9.206;2023-06-04T12:52:02;2.90;;;1.00;;
7969;SDS011;4030;52.362;9.206;2023-06-04T12:54:29;1.75;;;0.90;;
7969;SDS011;4030;52.362;9.206;2023-06-04T12:56:55;1.20;;;0.90;;
7969;SDS011;4030;52.362;9.206;2023-06-04T12:59:22;1.48;;;1.10;;
7969;SDS011;4030;52.362;9.206;2023-06-04T13:01:52;1.63;;;1.13;;
7969;SDS011;4030;52.362;9.206;2023-06-04T13:04:19;1.58;;;1.00;;
7969;SDS011;4030;52.362;9.206;2023-06-04T13:06:45;1.52;;;0.98;;
7969;SDS011;4030;52.362;9.206;2023-06-04T13:09:11;3.42;;;1.13;;
7969;SDS011;4030;52.362;9.206;2023-06-04T13:11:38;6.28;;;1.20;;
7969;SDS011;4030;52.362;9.206;2023-06-04T13:14:05;2.83;;;1.13;;
7969;SDS011;4030;52.362;9.206;2023-06-04T13:16:30;3.63;;;1.10;;
7969;SDS011;4030;52.362;9.206;2023-06-04T13:18:56;3.92;;;1.17;;
7969;SDS011;4030;52.362;9.206;2023-06-04T13:21:22;2.75;;;1.00;;
7969;SDS011;4030;52.362;9.206;2023-06-04T13:23:48;1.83;;;1.20;;
7969;SDS011;4030;52.362;9.206;2023-06-04T13:26:15;1.60;;;1.08;;
7969;SDS011;4030;52.362;9.206;2023-06-04T13:28:43;3.20;;;1.02;;
7969;SDS011;4030;52.362;9.206;2023-06-04T13:31:09;1.58;;;1.08;;
7969;SDS011;4030;52.362;9.206;2023-06-04T13:33:35;2.33;;;1.10;;
7969;SDS011;4030;52.362;9.206;2023-06-04T13:36:04;3.85;;;1.23;;
7969;SDS011;4030;52.362;9.206;2023-06-04T13:38:31;1.63;;;1.13;;
7969;SDS011;4030;52.362;9.206;2023-06-04T13:40:57;2.47;;;1.10;;
7969;SDS011;4030;52.362;9.206;2023-06-04T13:43:23;3.33;;;0.90;;
7969;SDS011;4030;52.362;9.206;2023-06-04T13:45:48;4.15;;;1.13;;
7969;SDS011;4030;52.362;9.206;2023-06-04T13:48:14;2.30;;;1.10;;
7969;SDS011;4030;52.362;9.206;2023-06-04T13:50:40;3.60;;;1.10;;
7969;SDS011;4030;52.362;9.206;2023-06-04T13:53:07;3.03;;;0.95;;
7969;SDS011;4030;52.362;9.206;2023-06-04T13:55:33;4.03;;;1.17;;
7969;SDS011;4030;52.362;9.206;2023-06-04T13:57:59;1.95;;;1.17;;
7969;SDS011;4030;52.362;9.206;2023-06-04T14:00:25;2.42;;;1.00;;
7969;SDS011;4030;52.362;9.206;2023-06-04T14:02:51;2.03;;;1.08;;
7969;SDS011;4030;52.362;9.206;2023-06-04T14:05:17;1.42;;;0.93;;
7969;SDS011;4030;52.362;9.206;2023-06-04T14:07:43;1.88;;;1.10;;
7969;SDS011;4030;52.362;9.206;2023-06-04T14:10:12;2.40;;;1.10;;
7969;SDS011;4030;52.362;9.206;2023-06-04T14:12:38;1.27;;;0.90;;
7969;SDS011;4030;52.362;9.206;2023-06-04T14:15:09;1.92;;;0.80;;
7969;SDS011;4030;52.362;9.206;2023-06-04T14:17:36;1.90;;;1.08;;
7969;SDS011;4030;52.362;9.206;2023-06-04T14:20:03;1.45;;;0.98;;
7969;SDS011;4030;52.362;9.206;2023-06-04T14:22:34;2.42;;;1.00;;
7969;SDS011;4030;52.362;9.206;2023-06-04T14:25:02;2.03;;;1.20;;
7969;SDS011;4030;52.362;9.206;2023-06-04T14:27:32;1.20;;;0.90;;
7969;SDS011;4030;52.362;9.206;2023-06-04T14:30:00;2.83;;;1.00;;
7969;SDS011;4030;52.362;9.206;2023-06-04T14:32:28;1.85;;;0.90;;
7969;SDS011;4030;52.362;9.206;2023-06-04T14:34:53;2.20;;;1.00;;
7969;SDS011;4030;52.362;9.206;2023-06-04T14:37:20;2.25;;;1.00;;
7969;SDS011;4030;52.362;9.206;2023-06-04T14:39:46;2.58;;;0.98;;
7969;SDS011;4030;52.362;9.206;2023-06-04T14:42:12;2.63;;;1.20;;
7969;SDS011;4030;52.362;9.206;2023-06-04T14:44:38;2.53;;;1.10;;
7969;SDS011;4030;52.362;9.206;2023-06-04T14:47:04;2.58;;;0.82;;
7969;SDS011;4030;52.362;9.206;2023-06-04T14:49:30;1.55;;;0.90;;
7969;SDS011;4030;52.362;9.206;2023-06-04T14:51:56;1.75;;;0.85;;
7969;SDS011;4030;52.362;9.206;2023-06-04T14:54:22;1.05;;;0.95;;
7969;SDS011;4030;52.362;9.206;2023-06-04T14:56:47;1.02;;;0.90;;
7969;SDS011;4030;52.362;9.206;2023-06-04T14:59:13;1.67;;;1.00;;
7969;SDS011;4030;52.362;9.206;2023-06-04T15:01:39;1.65;;;1.00;;
7969;SDS011;4030;52.362;9.206;2023-06-04T15:04:06;1.65;;;0.82;;
7969;SDS011;4030;52.362;9.206;2023-06-04T15:06:32;3.22;;;1.05;;
7969;SDS011;4030;52.362;9.206;2023-06-04T15:08:58;1.23;;;1.10;;
7969;SDS011;4030;52.362;9.206;2023-06-04T15:11:23;1.38;;;1.00;;
7969;SDS011;4030;52.362;9.206;2023-06-04T15:13:50;1.23;;;0.90;;
7969;SDS011;4030;52.362;9.206;2023-06-04T15:16:17;1.40;;;0.95;;
7969;SDS011;4030;52.362;9.206;2023-06-04T15:18:43;1.38;;;1.00;;